| time (UTC) | temp F | wind direction | speed MPH | gust MPH | rain 1hr in | rain 24hr in | rain mn in | humidity % | barometer mb |
| 20260510112507 | 48 | 261 | 9.0 | 14.0 | 0.00 | 0.00 | 0.00 | 73 | 1012.1 |
| 20260510112006 | 48 | 279 | 9.0 | 14.0 | 0.00 | 0.00 | 0.00 | 73 | 1011.1 |
| 20260510111508 | 48 | 275 | 9.0 | 14.0 | 0.00 | 0.00 | 0.00 | 73 | 1010.9 |
| 20260510111007 | 48 | 276 | 9.0 | 14.0 | 0.00 | 0.00 | 0.00 | 74 | 1011.1 |
| 20260510110507 | 49 | 283 | 9.0 | 12.0 | 0.00 | 0.00 | 0.00 | 74 | 1010.1 |
| 20260510110007 | 49 | 285 | 9.0 | 12.0 | 0.00 | 0.00 | 0.00 | 75 | 1010.1 |
| 20260510105507 | 49 | 291 | 9.0 | 12.0 | 0.00 | 0.00 | 0.00 | 75 | 1010.1 |
| 20260510105006 | 49 | 281 | 9.0 | 9.0 | 0.00 | 0.00 | 0.00 | 75 | 1010.1 |
| 20260510104507 | 49 | 295 | 7.0 | 9.0 | 0.00 | 0.00 | 0.00 | 76 | 1010.1 |
| 20260510104008 | 49 | 299 | 5.0 | 9.0 | 0.00 | 0.00 | 0.00 | 76 | 1010.1 |
| 20260510102009 | 49 | 295 | 7.0 | 9.0 | 0.00 | 0.00 | 0.00 | 79 | 1010.1 |
| 20260510101507 | 49 | 266 | 7.0 | 7.0 | 0.00 | 0.00 | 0.00 | 79 | 1010.1 |
| 20260510101009 | 49 | 278 | 7.0 | 9.0 | 0.00 | 0.00 | 0.00 | 79 | 1010.1 |
| 20260510100508 | 49 | 274 | 7.0 | 12.0 | 0.00 | 0.00 | 0.00 | 79 | 1010.1 |
| 20260510100007 | 49 | 279 | 9.0 | 16.0 | 0.00 | 0.00 | 0.00 | 79 | 1009.1 |
| 20260510095508 | 49 | 283 | 9.0 | 16.0 | 0.00 | 0.00 | 0.00 | 81 | 1009.1 |
| 20260510095008 | 49 | 253 | 5.0 | 7.0 | 0.00 | 0.00 | 0.00 | 81 | 1009.1 |
| 20260510094508 | 48 | 252 | 5.0 | 5.0 | 0.00 | 0.00 | 0.00 | 81 | 1009.1 |
| 20260510094008 | 48 | 230 | 5.0 | 5.0 | 0.00 | 0.00 | 0.00 | 81 | 1009.1 |
| 20260510093508 | 49 | 229 | 5.0 | 7.0 | 0.00 | 0.00 | 0.00 | 80 | 1009.1 |
| 20260510093009 | 49 | 237 | 7.0 | 7.0 | 0.00 | 0.00 | 0.00 | 80 | 1009.1 |
| 20260510092009 | 49 | 234 | 7.0 | 9.0 | 0.00 | 0.00 | 0.00 | 80 | 1009.1 |
| 20260510091507 | 49 | 229 | 7.0 | 9.0 | 0.00 | 0.00 | 0.00 | 80 | 1009.1 |
| 20260510090508 | 49 | 238 | 7.0 | 7.0 | 0.00 | 0.00 | 0.00 | 78 | 1009.1 |
| 20260510085508 | 49 | 241 | 7.0 | 9.0 | 0.00 | 0.00 | 0.00 | 78 | 1008.1 |
| 20260510085008 | 49 | 251 | 7.0 | 9.0 | 0.00 | 0.00 | 0.00 | 77 | 1008.1 |
| 20260510084507 | 50 | 271 | 9.0 | 12.0 | 0.00 | 0.00 | 0.00 | 77 | 1008.4 |
| 20260510084008 | 50 | 275 | 7.0 | 12.0 | 0.00 | 0.00 | 0.00 | 76 | 1008.8 |
| 20260510083009 | 51 | 290 | 7.0 | 9.0 | 0.00 | 0.00 | 0.00 | 77 | 1008.1 |
| 20260510081008 | 52 | 280 | 9.0 | 14.0 | 0.00 | 0.00 | 0.00 | 80 | 1008.1 |
| 20260510080507 | 52 | 279 | 9.0 | 14.0 | 0.00 | 0.00 | 0.00 | 81 | 1008.1 |
| 20260510075008 | 53 | 275 | 7.0 | 9.0 | 0.00 | 0.00 | 0.00 | 85 | 1008.1 |
| 20260510074507 | 53 | 274 | 7.0 | 9.0 | 0.00 | 0.00 | 0.00 | 86 | 1007.6 |
| 20260510074009 | 52 | 283 | 5.0 | 9.0 | 0.00 | 0.00 | 0.00 | 87 | 1007.1 |
| 20260510073509 | 52 | 284 | 7.0 | 9.0 | 0.00 | 0.00 | 0.00 | 87 | 1007.1 |
| 20260510073008 | 52 | 287 | 7.0 | 7.0 | 0.00 | 0.00 | 0.00 | 87 | 1007.1 |
| 20260510072008 | 52 | 262 | 7.0 | 7.0 | 0.00 | 0.00 | 0.00 | 87 | 1007.5 |
| 20260510071507 | 52 | 264 | 5.0 | 7.0 | 0.00 | 0.00 | 0.00 | 87 | 1007.1 |
| 20260510071008 | 52 | 286 | 5.0 | 9.0 | 0.00 | 0.00 | 0.00 | 87 | 1007.1 |
| 20260510070507 | 53 | 271 | 7.0 | 9.0 | 0.00 | 0.00 | 0.00 | 87 | 1007.1 |
| 20260510070007 | 53 | 275 | 5.0 | 9.0 | 0.00 | 0.00 | 0.00 | 87 | 1007.1 |
| 20260510065507 | 52 | 285 | 5.0 | 5.0 | 0.00 | 0.00 | 0.00 | 87 | 1007.0 |
| 20260510064506 | 53 | 293 | 5.0 | 7.0 | 0.00 | 0.00 | 0.00 | 87 | 1006.1 |
| 20260510064008 | 53 | 296 | 5.0 | 9.0 | 0.00 | 0.00 | 0.00 | 87 | 1007.1 |
| 20260510063507 | 53 | 291 | 5.0 | 9.0 | 0.00 | 0.00 | 0.00 | 88 | 1006.1 |
| 20260510063008 | 53 | 275 | 7.0 | 9.0 | 0.00 | 0.00 | 0.00 | 89 | 1007.1 |
| 20260510062507 | 53 | 281 | 7.0 | 9.0 | 0.00 | 0.00 | 0.00 | 89 | 1006.1 |
| 20260510062008 | 53 | 278 | 7.0 | 9.0 | 0.00 | 0.00 | 0.00 | 90 | 1006.1 |
| 20260510061008 | 53 | 292 | 7.0 | 9.0 | 0.00 | 0.00 | 0.00 | 90 | 1006.1 |
| 20260510060507 | 53 | 277 | 9.0 | 14.0 | 0.00 | 0.00 | 0.00 | 90 | 1006.1 |
| 20260510060007 | 53 | 277 | 9.0 | 14.0 | 0.00 | 0.00 | 0.00 | 90 | 1006.1 |
| 20260510054507 | 53 | 257 | 7.0 | 7.0 | 0.00 | 0.00 | 0.00 | 90 | 1006.1 |
| 20260510054008 | 52 | 238 | 7.0 | 9.0 | 0.00 | 0.00 | 0.00 | 90 | 1006.1 |
| 20260510053508 | 52 | 253 | 7.0 | 9.0 | 0.00 | 0.00 | 0.00 | 89 | 1006.1 |
| 20260510053008 | 53 | 255 | 8.0 | 9.0 | 0.00 | 0.00 | 0.00 | 89 | 1006.1 |
| 20260510052507 | 53 | 250 | 7.0 | 9.0 | 0.00 | 0.00 | 0.00 | 89 | 1006.1 |
| 20260510052008 | 53 | 250 | 7.0 | 7.0 | 0.00 | 0.00 | 0.00 | 89 | 1006.1 |
| 20260510051507 | 53 | 260 | 7.0 | 7.0 | 0.00 | 0.00 | 0.00 | 89 | 1006.1 |
| 20260510051008 | 53 | 242 | 7.0 | 9.0 | 0.00 | 0.00 | 0.00 | 88 | 1006.1 |
| 20260510050507 | 53 | 241 | 7.0 | 9.0 | 0.00 | 0.00 | 0.00 | 88 | 1006.1 |
| 20260510050006 | 53 | 222 | 7.0 | 9.0 | 0.00 | 0.00 | 0.00 | 88 | 1006.1 |
| 20260510045507 | 53 | 220 | 9.0 | 9.0 | 0.00 | 0.00 | 0.00 | 88 | 1006.1 |
| 20260510045008 | 53 | 214 | 9.0 | 9.0 | 0.00 | 0.00 | 0.00 | 89 | 1006.1 |
| 20260510044008 | 53 | 199 | 7.0 | 9.0 | 0.00 | 0.00 | 0.00 | 89 | 1006.1 |
| 20260510043507 | 53 | 199 | 7.0 | 9.0 | 0.00 | 0.00 | 0.00 | 88 | 1006.1 |
| 20260510043007 | 53 | 211 | 7.0 | 9.0 | 0.00 | 0.00 | 0.00 | 88 | 1006.1 |
| 20260510042507 | 54 | 217 | 7.0 | 9.0 | 0.00 | 0.00 | 0.00 | 88 | 1005.1 |
| 20260510042007 | 54 | 215 | 7.0 | 7.0 | 0.00 | 0.00 | 0.00 | 88 | 1005.6 |
| 20260510041507 | 54 | 215 | 6.0 | 7.0 | 0.00 | 0.00 | 0.00 | 88 | 1006.1 |
| 20260510041007 | 54 | 216 | 7.0 | 7.0 | 0.00 | 0.00 | 0.00 | 88 | 1005.6 |
| 20260510040007 | 54 | 210 | 7.0 | 9.0 | 0.00 | 0.00 | 0.00 | 88 | 1005.1 |
| 20260510035507 | 54 | 225 | 7.0 | 9.0 | 0.00 | 0.00 | 0.00 | 88 | 1005.1 |
| 20260510035008 | 54 | 230 | 7.0 | 9.0 | 0.00 | 0.00 | 0.00 | 88 | 1005.1 |
| 20260510034008 | 54 | 236 | 9.0 | 9.0 | 0.00 | 0.00 | 0.00 | 88 | 1005.1 |
| 20260510033507 | 54 | 239 | 9.0 | 9.0 | 0.00 | 0.00 | 0.00 | 88 | 1005.1 |
| 20260510033008 | 54 | 239 | 9.0 | 9.0 | 0.00 | 0.00 | 0.00 | 88 | 1005.1 |
| 20260510032507 | 54 | 229 | 9.0 | 9.0 | 0.00 | 0.00 | 0.00 | 88 | 1005.1 |
| 20260510032007 | 54 | 234 | 9.0 | 12.0 | 0.00 | 0.00 | 0.00 | 88 | 1005.1 |
| 20260510031507 | 54 | 233 | 9.0 | 12.0 | 0.00 | 0.00 | 0.00 | 87 | 1005.1 |
| 20260510030507 | 54 | 225 | 9.0 | 12.0 | 0.00 | 0.00 | 0.00 | 88 | 1004.7 |
| 20260510030006 | 54 | 231 | 9.0 | 12.0 | 0.00 | 0.00 | 0.00 | 88 | 1004.7 |
| 20260510025507 | 54 | 224 | 9.0 | 12.0 | 0.00 | 0.00 | 0.00 | 88 | 1004.1 |
| 20260510025008 | 54 | 221 | 11.0 | 12.0 | 0.00 | 0.00 | 0.00 | 89 | 1004.1 |
| 20260510024507 | 54 | 221 | 9.0 | 12.0 | 0.00 | 0.00 | 0.00 | 89 | 1004.1 |
| 20260510024008 | 54 | 215 | 9.0 | 12.0 | 0.00 | 0.00 | 0.00 | 89 | 1004.1 |
| 20260510023507 | 54 | 236 | 9.0 | 14.0 | 0.00 | 0.00 | 0.00 | 89 | 1004.1 |
| 20260510023008 | 54 | 230 | 11.0 | 14.0 | 0.00 | 0.00 | 0.00 | 90 | 1004.1 |
| 20260510022507 | 54 | 226 | 9.0 | 14.0 | 0.00 | 0.00 | 0.00 | 91 | 1004.1 |
| 20260510022008 | 54 | 225 | 10.0 | 14.0 | 0.00 | 0.00 | 0.00 | 91 | 1004.1 |
| 20260510021507 | 54 | 217 | 10.0 | 14.0 | 0.00 | 0.00 | 0.00 | 92 | 1004.1 |
| 20260510021007 | 54 | 214 | 9.0 | 14.0 | 0.00 | 0.00 | 0.00 | 92 | 1004.1 |
| 20260510020507 | 54 | 216 | 10.0 | 14.0 | 0.00 | 0.00 | 0.00 | 93 | 1004.1 |
| 20260510020007 | 54 | 223 | 10.0 | 16.0 | 0.00 | 0.00 | 0.00 | 93 | 1004.1 |
| 20260510015507 | 54 | 227 | 12.0 | 16.0 | 0.00 | 0.00 | 0.00 | 94 | 1004.1 |
| 20260510015008 | 53 | 230 | 12.0 | 16.0 | 0.00 | 0.00 | 0.00 | 94 | 1004.1 |
| 20260510014506 | 53 | 225 | 12.0 | 16.0 | 0.00 | 0.00 | 0.00 | 94 | 1004.1 |
| 20260510014008 | 53 | 220 | 14.0 | 16.0 | 0.00 | 0.00 | 0.00 | 94 | 1004.1 |
| 20260510013507 | 53 | 226 | 14.0 | 16.0 | 0.00 | 0.00 | 0.00 | 94 | 1004.1 |
| 20260510013008 | 53 | 224 | 14.0 | 16.0 | 0.00 | 0.00 | 0.00 | 94 | 1004.1 |
| 20260510012507 | 53 | 217 | 14.0 | 16.0 | 0.00 | 0.00 | 0.00 | 93 | 1003.1 |
| 20260510012008 | 53 | 230 | 14.0 | 18.0 | 0.00 | 0.00 | 0.00 | 93 | 1003.1 |
| 20260510011506 | 53 | 227 | 13.0 | 18.0 | 0.00 | 0.00 | 0.00 | 93 | 1003.2 |
| 20260510011008 | 53 | 217 | 12.0 | 14.0 | 0.00 | 0.00 | 0.00 | 93 | 1003.6 |
| 20260510010507 | 52 | 230 | 9.0 | 12.0 | 0.00 | 0.00 | 0.00 | 92 | 1003.1 |
| 20260510005506 | 52 | 282 | 7.0 | 16.0 | 0.00 | 0.00 | 0.00 | 91 | 1003.9 |
| 20260510005008 | 52 | 272 | 12.0 | 18.0 | 0.00 | 0.00 | 0.00 | 91 | 1003.1 |
| 20260510004506 | 52 | 206 | 14.0 | 18.0 | 0.00 | 0.00 | 0.00 | 90 | 1003.1 |
| 20260510003008 | 52 | 252 | 12.0 | 14.0 | 0.00 | 0.00 | 0.00 | 87 | 1004.1 |
| 20260510002507 | 52 | 250 | 12.0 | 14.0 | 0.00 | 0.00 | 0.00 | 85 | 1004.1 |
| 20260510002008 | 52 | 282 | 12.0 | 16.0 | 0.00 | 0.00 | 0.00 | 83 | 1003.9 |
| 20260510001507 | 52 | 283 | 14.0 | 20.0 | 0.00 | 0.00 | 0.00 | 81 | 1003.6 |
| 20260510000507 | 52 | 299 | 21.0 | 38.0 | 0.00 | 0.00 | 0.00 | 76 | 1003.6 |
| 20260510000007 | 55 | 286 | 23.0 | 38.0 | 0.00 | 0.00 | 0.00 | 72 | 1003.1 |
| 20260509235506 | 58 | 315 | 5.0 | 24.0 | 0.00 | 0.00 | 0.00 | 69 | 1002.1 |
| 20260509234506 | 58 | 173 | 0.0 | 2.0 | 0.00 | 0.00 | 0.00 | 70 | 1001.1 |
| 20260509233507 | 57 | 115 | 0.0 | 5.0 | 0.00 | 0.00 | 0.00 | 71 | 1001.1 |
| 20260509232507 | 57 | 106 | 2.0 | 5.0 | 0.00 | 0.00 | 0.00 | 71 | 1001.1 |
| 20260509232007 | 56 | 120 | 1.0 | 5.0 | 0.00 | 0.00 | 0.00 | 72 | 1001.1 |
| 20260509231506 | 55 | 121 | 2.0 | 5.0 | 0.00 | 0.00 | 0.00 | 72 | 1001.1 |
| 20260509231008 | 55 | 73 | 2.0 | 5.0 | 0.00 | 0.00 | 0.00 | 72 | 1001.1 |
| 20260509230507 | 56 | 62 | 2.0 | 5.0 | 0.00 | 0.00 | 0.00 | 71 | 1001.1 |
| 20260509230007 | 56 | 1 | 2.0 | 5.0 | 0.00 | 0.00 | 0.00 | 70 | 1001.1 |
| 20260509225008 | 58 | 353 | 2.0 | 5.0 | 0.00 | 0.00 | 0.00 | 68 | 1001.1 |
| 20260509224007 | 57 | 87 | 2.0 | 5.0 | 0.00 | 0.00 | 0.00 | 67 | 1001.1 |
| 20260509223507 | 58 | 60 | 2.0 | 5.0 | 0.00 | 0.00 | 0.00 | 65 | 1001.1 |
| 20260509223008 | 61 | 21 | 2.0 | 7.0 | 0.00 | 0.00 | 0.00 | 64 | 1001.1 |
| 20260509222506 | 61 | 351 | 2.0 | 7.0 | 0.00 | 0.00 | 0.00 | 62 | 1001.1 |
| 20260509222007 | 61 | 288 | 3.0 | 14.0 | 0.00 | 0.00 | 0.00 | 61 | 1001.1 |
| 20260509221506 | 64 | 334 | 5.0 | 14.0 | 0.00 | 0.00 | 0.00 | 57 | 1001.1 |
| 20260509221007 | 67 | 229 | 9.0 | 14.0 | 0.00 | 0.00 | 0.00 | 57 | 1001.1 |
| 20260509220507 | 67 | 225 | 12.0 | 14.0 | 0.00 | 0.00 | 0.00 | 56 | 1000.6 |
| 20260509220007 | 67 | 215 | 12.0 | 14.0 | 0.00 | 0.00 | 0.00 | 57 | 1000.1 |
| 20260509215506 | 67 | 197 | 12.0 | 20.0 | 0.00 | 0.00 | 0.00 | 57 | 1000.1 |
| 20260509215008 | 67 | 223 | 14.0 | 20.0 | 0.00 | 0.00 | 0.00 | 57 | 1000.1 |
| 20260509214507 | 67 | 196 | 14.0 | 20.0 | 0.00 | 0.00 | 0.00 | 58 | 1000.1 |
| 20260509214007 | 67 | 197 | 14.0 | 16.0 | 0.00 | 0.00 | 0.00 | 58 | 1000.1 |
| 20260509213008 | 67 | 209 | 12.0 | 22.0 | 0.00 | 0.00 | 0.00 | 59 | 1000.1 |
| 20260509212506 | 68 | 199 | 12.0 | 18.0 | 0.00 | 0.00 | 0.00 | 59 | 1000.1 |
| 20260509212007 | 68 | 212 | 14.0 | 18.0 | 0.00 | 0.00 | 0.00 | 59 | 1000.1 |
| 20260509210507 | 67 | 207 | 14.0 | 22.0 | 0.00 | 0.00 | 0.00 | 60 | 1000.1 |
| 20260509205506 | 68 | 206 | 12.0 | 18.0 | 0.00 | 0.00 | 0.00 | 60 | 1000.1 |
| 20260509205007 | 68 | 207 | 10.0 | 18.0 | 0.00 | 0.00 | 0.00 | 61 | 1000.1 |
| 20260509204506 | 67 | 204 | 12.0 | 20.0 | 0.00 | 0.00 | 0.00 | 61 | 1000.1 |
| 20260509204007 | 67 | 183 | 14.0 | 20.0 | 0.00 | 0.00 | 0.00 | 61 | 1000.1 |
| 20260509203507 | 67 | 206 | 12.0 | 18.0 | 0.00 | 0.00 | 0.00 | 62 | 1000.1 |
| 20260509203007 | 67 | 199 | 14.0 | 18.0 | 0.00 | 0.00 | 0.00 | 63 | 1000.2 |
| 20260509202506 | 67 | 196 | 12.0 | 18.0 | 0.00 | 0.00 | 0.00 | 64 | 1001.1 |
| 20260509202008 | 67 | 197 | 14.0 | 18.0 | 0.00 | 0.00 | 0.00 | 66 | 1001.1 |
| 20260509201506 | 67 | 187 | 12.0 | 18.0 | 0.00 | 0.00 | 0.00 | 68 | 1001.1 |
| 20260509201008 | 66 | 169 | 9.0 | 14.0 | 0.00 | 0.00 | 0.00 | 73 | 1001.1 |
| 20260509200506 | 62 | 221 | 3.0 | 12.0 | 0.00 | 0.00 | 0.00 | 81 | 1001.1 |
| 20260509200006 | 57 | 63 | 2.0 | 9.0 | 0.00 | 0.00 | 0.00 | 83 | 1002.1 |
| 20260509195506 | 55 | 81 | 5.0 | 9.0 | 0.00 | 0.00 | 0.00 | 83 | 1002.1 |
| 20260509195006 | 54 | 55 | 5.0 | 7.0 | 0.00 | 0.00 | 0.00 | 83 | 1002.1 |
| 20260509194506 | 55 | 55 | 5.0 | 9.0 | 0.00 | 0.00 | 0.00 | 83 | 1002.1 |
| 20260509193506 | 53 | 77 | 7.0 | 12.0 | 0.00 | 0.00 | 0.00 | 85 | 1002.1 |
| 20260509193007 | 53 | 69 | 7.0 | 12.0 | 0.00 | 0.00 | 0.00 | 85 | 1002.1 |
| 20260509192507 | 53 | 62 | 7.0 | 9.0 | 0.00 | 0.00 | 0.00 | 85 | 1002.1 |
| 20260509192008 | 53 | 69 | 7.0 | 12.0 | 0.00 | 0.00 | 0.00 | 85 | 1002.1 |
| 20260509191506 | 53 | 76 | 9.0 | 12.0 | 0.00 | 0.00 | 0.00 | 85 | 1002.1 |
| 20260509191008 | 53 | 83 | 9.0 | 14.0 | 0.00 | 0.00 | 0.00 | 86 | 1002.1 |
| 20260509190506 | 52 | 83 | 11.0 | 14.0 | 0.00 | 0.00 | 0.00 | 86 | 1002.1 |
| 20260509190006 | 52 | 63 | 9.0 | 12.0 | 0.00 | 0.00 | 0.00 | 86 | 1002.1 |
| 20260509185007 | 52 | 67 | 9.0 | 14.0 | 0.00 | 0.00 | 0.00 | 85 | 1002.1 |
| 20260509184506 | 52 | 70 | 12.0 | 12.0 | 0.00 | 0.00 | 0.00 | 85 | 1002.1 |
| 20260509184007 | 52 | 70 | 9.0 | 12.0 | 0.00 | 0.00 | 0.00 | 85 | 1003.1 |
| 20260509183507 | 52 | 81 | 9.0 | 12.0 | 0.00 | 0.00 | 0.00 | 85 | 1003.1 |
| 20260509183007 | 52 | 77 | 9.0 | 12.0 | 0.00 | 0.00 | 0.00 | 86 | 1003.1 |
| 20260509182506 | 52 | 69 | 9.0 | 12.0 | 0.00 | 0.00 | 0.00 | 85 | 1003.1 |
| 20260509182007 | 52 | 74 | 8.0 | 14.0 | 0.00 | 0.00 | 0.00 | 85 | 1003.1 |
| 20260509181506 | 52 | 76 | 10.0 | 14.0 | 0.00 | 0.00 | 0.00 | 84 | 1003.1 |
| 20260509181007 | 52 | 76 | 12.0 | 14.0 | 0.00 | 0.00 | 0.00 | 84 | 1003.1 |
| 20260509180507 | 52 | 75 | 9.0 | 12.0 | 0.00 | 0.00 | 0.00 | 85 | 1003.6 |
| 20260509180006 | 52 | 72 | 7.0 | 12.0 | 0.00 | 0.00 | 0.00 | 85 | 1004.1 |
| 20260509175506 | 52 | 69 | 8.0 | 12.0 | 0.00 | 0.00 | 0.00 | 85 | 1004.1 |
| 20260509175007 | 52 | 65 | 9.0 | 12.0 | 0.00 | 0.00 | 0.00 | 85 | 1004.1 |
| 20260509174506 | 52 | 88 | 9.0 | 12.0 | 0.00 | 0.00 | 0.00 | 85 | 1004.1 |
| 20260509174007 | 52 | 69 | 9.0 | 12.0 | 0.00 | 0.00 | 0.00 | 85 | 1004.1 |
| 20260509173506 | 52 | 72 | 9.0 | 12.0 | 0.00 | 0.00 | 0.00 | 85 | 1004.1 |
| 20260509173007 | 52 | 65 | 7.0 | 12.0 | 0.00 | 0.00 | 0.00 | 85 | 1004.1 |
| 20260509172007 | 52 | 73 | 7.0 | 12.0 | 0.00 | 0.00 | 0.00 | 85 | 1004.1 |
| 20260509171505 | 52 | 91 | 7.0 | 9.0 | 0.00 | 0.00 | 0.00 | 85 | 1004.1 |
| 20260509171007 | 52 | 81 | 9.0 | 12.0 | 0.00 | 0.00 | 0.00 | 85 | 1004.1 |
| 20260509170506 | 52 | 67 | 9.0 | 12.0 | 0.00 | 0.00 | 0.00 | 85 | 1004.1 |
| 20260509170006 | 52 | 94 | 9.0 | 12.0 | 0.00 | 0.00 | 0.00 | 85 | 1004.1 |
| 20260509165506 | 52 | 70 | 9.0 | 12.0 | 0.00 | 0.00 | 0.00 | 85 | 1004.1 |
| 20260509165007 | 52 | 71 | 9.0 | 12.0 | 0.00 | 0.00 | 0.00 | 84 | 1004.1 |
| 20260509164506 | 52 | 88 | 9.0 | 12.0 | 0.00 | 0.00 | 0.00 | 84 | 1004.1 |
| 20260509164007 | 52 | 70 | 9.0 | 12.0 | 0.00 | 0.00 | 0.00 | 84 | 1004.1 |
| 20260509163506 | 52 | 71 | 9.0 | 12.0 | 0.00 | 0.00 | 0.00 | 84 | 1004.1 |
| 20260509163007 | 52 | 70 | 6.0 | 12.0 | 0.00 | 0.00 | 0.00 | 83 | 1004.1 |
| 20260509162507 | 53 | 63 | 5.0 | 7.0 | 0.00 | 0.00 | 0.00 | 84 | 1005.1 |
| 20260509162007 | 52 | 62 | 6.0 | 7.0 | 0.00 | 0.00 | 0.00 | 84 | 1005.1 |
| 20260509161506 | 52 | 60 | 7.0 | 12.0 | 0.00 | 0.00 | 0.00 | 84 | 1005.1 |
| 20260509161007 | 52 | 65 | 9.0 | 12.0 | 0.00 | 0.00 | 0.00 | 84 | 1005.1 |
| 20260509160506 | 52 | 70 | 9.0 | 12.0 | 0.00 | 0.00 | 0.00 | 84 | 1005.1 |
| 20260509160006 | 52 | 70 | 7.0 | 9.0 | 0.00 | 0.00 | 0.00 | 84 | 1005.1 |
| 20260509155506 | 52 | 61 | 7.0 | 9.0 | 0.00 | 0.00 | 0.00 | 83 | 1005.1 |
| 20260509154505 | 52 | 64 | 9.0 | 12.0 | 0.00 | 0.00 | 0.00 | 83 | 1005.1 |
| 20260509154006 | 52 | 70 | 8.0 | 12.0 | 0.00 | 0.00 | 0.00 | 83 | 1005.1 |
| 20260509153006 | 52 | 75 | 7.0 | 9.0 | 0.00 | 0.00 | 0.00 | 83 | 1005.1 |
| 20260509152006 | 52 | 65 | 5.0 | 9.0 | 0.00 | 0.00 | 0.00 | 82 | 1005.1 |
| 20260509151506 | 52 | 98 | 5.0 | 9.0 | 0.00 | 0.00 | 0.00 | 82 | 1005.1 |
| 20260509151007 | 52 | 73 | 7.0 | 9.0 | 0.00 | 0.00 | 0.00 | 81 | 1005.1 |
| 20260509150006 | 52 | 70 | 7.0 | 12.0 | 0.00 | 0.00 | 0.00 | 81 | 1005.1 |
| 20260509145505 | 52 | 78 | 7.0 | 12.0 | 0.00 | 0.00 | 0.00 | 80 | 1005.1 |
| 20260509145006 | 52 | 77 | 6.0 | 9.0 | 0.00 | 0.00 | 0.00 | 80 | 1005.1 |
| 20260509144505 | 52 | 67 | 5.0 | 9.0 | 0.00 | 0.00 | 0.00 | 79 | 1005.2 |
| 20260509144007 | 52 | 77 | 5.0 | 9.0 | 0.00 | 0.00 | 0.00 | 79 | 1005.1 |
| 20260509143007 | 53 | 71 | 7.0 | 9.0 | 0.00 | 0.00 | 0.00 | 77 | 1005.1 |
| 20260509142506 | 54 | 69 | 4.0 | 9.0 | 0.00 | 0.00 | 0.00 | 75 | 1005.1 |
| 20260509142007 | 57 | 119 | 2.0 | 5.0 | 0.00 | 0.00 | 0.00 | 75 | 1006.1 |
| 20260509141506 | 57 | 97 | 2.0 | 7.0 | 0.00 | 0.00 | 0.00 | 74 | 1005.4 |
| 20260509141006 | 58 | 187 | 5.0 | 7.0 | 0.00 | 0.00 | 0.00 | 74 | 1006.1 |
| 20260509140507 | 58 | 162 | 5.0 | 7.0 | 0.00 | 0.00 | 0.00 | 76 | 1006.1 |
| 20260509140006 | 57 | 179 | 2.0 | 5.0 | 0.00 | 0.00 | 0.00 | 76 | 1006.1 |
| 20260509135506 | 55 | 107 | 2.0 | 7.0 | 0.00 | 0.00 | 0.00 | 75 | 1006.1 |
| 20260509135006 | 57 | 105 | 2.0 | 7.0 | 0.00 | 0.00 | 0.00 | 75 | 1006.1 |
| 20260509134505 | 57 | 204 | 5.0 | 9.0 | 0.00 | 0.00 | 0.00 | 76 | 1006.1 |
| 20260509134007 | 56 | 165 | 5.0 | 9.0 | 0.00 | 0.00 | 0.00 | 76 | 1006.1 |
| 20260509133506 | 55 | 171 | 7.0 | 9.0 | 0.00 | 0.00 | 0.00 | 77 | 1006.1 |
| 20260509133006 | 55 | 172 | 2.0 | 9.0 | 0.00 | 0.00 | 0.00 | 78 | 1006.1 |
| 20260509132505 | 54 | 140 | 1.0 | 5.0 | 0.00 | 0.00 | 0.00 | 78 | 1006.1 |
| 20260509132006 | 52 | 119 | 2.0 | 5.0 | 0.00 | 0.00 | 0.00 | 78 | 1006.1 |
| 20260509131506 | 52 | 125 | 5.0 | 5.0 | 0.00 | 0.00 | 0.00 | 78 | 1006.1 |
| 20260509131006 | 51 | 107 | 2.0 | 5.0 | 0.00 | 0.00 | 0.00 | 78 | 1006.1 |
| 20260509130506 | 51 | 117 | 2.0 | 5.0 | 0.00 | 0.00 | 0.00 | 77 | 1006.1 |
| 20260509130005 | 52 | 98 | 2.0 | 5.0 | 0.00 | 0.00 | 0.00 | 77 | 1006.1 |
| 20260509125006 | 51 | 107 | 5.0 | 5.0 | 0.00 | 0.00 | 0.00 | 76 | 1006.6 |
| 20260509124506 | 51 | 94 | 5.0 | 5.0 | 0.00 | 0.00 | 0.00 | 76 | 1007.1 |
| 20260509124006 | 51 | 90 | 5.0 | 5.0 | 0.00 | 0.00 | 0.00 | 74 | 1007.1 |
| 20260509123506 | 52 | 94 | 0.0 | 5.0 | 0.00 | 0.00 | 0.00 | 73 | 1007.1 |
| 20260509123006 | 52 | 140 | 2.0 | 5.0 | 0.00 | 0.00 | 0.00 | 73 | 1007.1 |
| 20260509122505 | 52 | 170 | 0.0 | 2.0 | 0.00 | 0.00 | 0.00 | 73 | 1007.1 |
| 20260509122007 | 52 | 155 | 0.0 | 5.0 | 0.00 | 0.00 | 0.00 | 73 | 1007.1 |
| 20260509121506 | 52 | 148 | 2.0 | 5.0 | 0.00 | 0.00 | 0.00 | 73 | 1007.1 |
| 20260509120506 | 51 | 142 | 2.0 | 5.0 | 0.00 | 0.00 | 0.00 | 73 | 1007.1 |
| 20260509120005 | 50 | 139 | 0.0 | 5.0 | 0.00 | 0.00 | 0.00 | 73 | 1007.1 |
| 20260509115505 | 50 | 139 | 0.0 | 2.0 | 0.00 | 0.00 | 0.00 | 73 | 1007.1 |
| 20260509115006 | 50 | 139 | 0.0 | 2.0 | 0.00 | 0.00 | 0.00 | 73 | 1007.1 |
| 20260509114505 | 50 | 136 | 0.0 | 2.0 | 0.00 | 0.00 | 0.00 | 73 | 1007.1 |
| 20260509114007 | 49 | 152 | 0.0 | 5.0 | 0.00 | 0.00 | 0.00 | 72 | 1007.1 |
| 20260509113006 | 49 | 168 | 5.0 | 5.0 | 0.00 | 0.00 | 0.00 | 72 | 1007.3 |